Time;durP1;ratioP1;P1;durP2;ratioP2;P2;SDS_P1;SDS_P2;PMS_P1;PMS_P2;Temp;Humidity;BMP_temperature;BMP_pressure;BME280_temperature;BME280_humidity;BME280_pressure;Samples;Min_cycle;Max_cycle;Signal;HPM_P1;HPM_P2
2020/12/28 00:02:04;;;;;;;2.40;2.20;;;5.00;94.60;;;;;;5078248;28;20481;-57
2020/12/28 00:04:29;;;;;;;2.13;2.03;;;5.00;94.60;;;;;;5075734;28;20033;-57
2020/12/28 00:06:55;;;;;;;2.10;2.00;;;5.00;94.60;;;;;;5082726;28;20113;-57
2020/12/28 00:09:21;;;;;;;2.13;1.92;;;5.00;94.60;;;;;;5075416;28;20037;-57
2020/12/28 00:11:46;;;;;;;2.20;2.10;;;5.00;94.60;;;;;;5078411;28;20049;-57
2020/12/28 00:14:12;;;;;;;2.40;2.30;;;5.00;94.60;;;;;;5078670;28;20056;-57
2020/12/28 00:16:38;;;;;;;2.90;2.65;;;5.00;94.60;;;;;;5080576;28;20039;-57
2020/12/28 00:19:04;;;;;;;3.33;3.13;;;5.00;94.60;;;;;;5079144;28;20097;-57
2020/12/28 00:21:29;;;;;;;3.15;2.95;;;5.00;94.60;;;;;;5086228;28;20778;-57
2020/12/28 00:23:55;;;;;;;3.17;2.88;;;5.00;94.60;;;;;;5080909;28;20033;-57
2020/12/28 00:26:21;;;;;;;3.53;3.13;;;5.00;94.60;;;;;;5084080;28;20127;-57
2020/12/28 00:28:46;;;;;;;3.03;2.83;;;5.00;94.60;;;;;;5079864;28;20044;-57
2020/12/28 00:31:13;;;;;;;3.28;3.08;;;5.00;94.50;;;;;;5078268;28;20051;-57
2020/12/28 00:33:38;;;;;;;3.35;3.15;;;5.00;94.60;;;;;;5083242;28;20071;-57
2020/12/28 00:36:04;;;;;;;3.58;3.28;;;5.00;94.50;;;;;;5082900;28;20028;-57
2020/12/28 00:38:30;;;;;;;3.78;3.47;;;5.00;94.50;;;;;;5083158;28;20090;-57
2020/12/28 00:40:57;;;;;;;3.95;3.55;;;5.00;94.50;;;;;;5078943;28;20040;-57
2020/12/28 00:43:22;;;;;;;3.85;3.55;;;5.10;94.50;;;;;;5085508;28;20028;-57
2020/12/28 00:45:48;;;;;;;3.63;3.33;;;5.10;94.50;;;;;;5076628;28;20503;-57
2020/12/28 00:48:14;;;;;;;3.80;3.53;;;5.10;94.50;;;;;;5076321;28;20052;-57
2020/12/28 00:50:40;;;;;;;3.67;3.38;;;5.10;94.60;;;;;;5077396;28;20048;-57
2020/12/28 00:53:05;;;;;;;4.15;3.85;;;5.10;94.50;;;;;;5075022;28;20506;-57
2020/12/28 00:55:31;;;;;;;4.05;3.60;;;5.10;94.60;;;;;;5076239;28;20333;-57
2020/12/28 00:57:57;;;;;;;3.45;3.15;;;5.10;94.60;;;;;;5076294;28;20033;-57
2020/12/28 01:00:22;;;;;;;3.45;3.25;;;5.10;94.60;;;;;;5078247;28;20495;-57
2020/12/28 01:02:48;;;;;;;3.78;3.47;;;5.10;94.60;;;;;;5073689;28;20040;-57
2020/12/28 01:05:14;;;;;;;3.85;3.55;;;5.10;94.60;;;;;;5079629;28;20161;-57
2020/12/28 01:07:39;;;;;;;4.03;3.72;;;5.10;94.60;;;;;;5075532;28;20516;-57
2020/12/28 01:10:05;;;;;;;4.20;3.90;;;5.10;94.60;;;;;;5074466;28;20519;-57
2020/12/28 01:12:31;;;;;;;5.22;4.82;;;5.10;94.60;;;;;;5075107;28;20059;-57
2020/12/28 01:14:57;;;;;;;4.60;4.20;;;5.10;94.50;;;;;;5075614;28;20036;-57
2020/12/28 01:17:23;;;;;;;4.80;4.40;;;5.10;94.50;;;;;;5077529;28;20040;-57
2020/12/28 01:19:49;;;;;;;4.70;4.30;;;5.10;94.50;;;;;;5075328;28;20036;-57
2020/12/28 01:22:14;;;;;;;4.85;4.45;;;5.10;94.60;;;;;;5076157;28;20047;-57
2020/12/28 01:24:40;;;;;;;4.90;4.45;;;5.10;94.50;;;;;;5077245;28;20076;-57
2020/12/28 01:27:05;;;;;;;5.13;4.72;;;5.10;94.50;;;;;;5079216;28;20136;-57
2020/12/28 01:29:31;;;;;;;4.85;4.50;;;5.10;94.50;;;;;;5078791;28;20108;-57
2020/12/28 01:31:57;;;;;;;5.82;4.90;;;5.10;94.50;;;;;;5079182;28;20109;-57
2020/12/28 01:34:22;;;;;;;5.97;5.43;;;5.10;94.40;;;;;;5079665;28;20040;-57
2020/12/28 01:36:49;;;;;;;5.82;5.38;;;5.10;94.40;;;;;;5076590;28;20469;-57
2020/12/28 01:39:14;;;;;;;5.70;5.25;;;5.10;94.40;;;;;;5078932;28;20037;-57
2020/12/28 01:41:40;;;;;;;7.00;6.40;;;5.10;94.40;;;;;;5079016;28;20056;-57
2020/12/28 01:44:06;;;;;;;5.88;5.38;;;5.10;94.40;;;;;;5077096;28;20039;-57
2020/12/28 01:46:32;;;;;;;6.25;5.65;;;5.10;94.40;;;;;;5081069;28;20089;-57
2020/12/28 01:48:58;;;;;;;5.70;5.25;;;5.10;94.40;;;;;;5076154;28;20040;-57
2020/12/28 01:51:25;;;;;;;5.30;4.80;;;5.10;94.40;;;;;;5078999;28;20062;-57
2020/12/28 01:53:52;;;;;;;4.65;4.25;;;5.10;94.50;;;;;;5074628;28;20115;-57
2020/12/28 01:56:20;;;;;;;4.60;4.30;;;5.10;94.40;;;;;;5076264;28;20121;-56
2020/12/28 01:58:46;;;;;;;5.45;4.95;;;5.10;94.40;;;;;;5073314;28;20044;-57
2020/12/28 02:01:15;;;;;;;5.28;4.85;;;5.10;94.40;;;;;;5081163;28;20048;-57
2020/12/28 02:03:42;;;;;;;4.75;4.45;;;5.10;94.40;;;;;;5075036;28;20028;-57
2020/12/28 02:06:08;;;;;;;5.57;5.18;;;5.10;94.40;;;;;;5083159;28;20032;-57
2020/12/28 02:08:33;;;;;;;5.10;4.70;;;5.00;94.30;;;;;;5076908;28;20044;-57
2020/12/28 02:11:00;;;;;;;5.50;5.00;;;5.10;94.40;;;;;;5077912;28;20077;-57
2020/12/28 02:13:25;;;;;;;5.20;4.80;;;5.00;94.30;;;;;;5078302;28;20054;-57
2020/12/28 02:15:51;;;;;;;6.47;4.95;;;5.00;94.30;;;;;;5084007;28;20040;-57
2020/12/28 02:18:20;;;;;;;5.80;5.22;;;5.00;94.20;;;;;;5074944;28;20501;-57
2020/12/28 02:20:49;;;;;;;6.50;4.93;;;5.00;94.30;;;;;;5076797;28;20260;-57
2020/12/28 02:23:14;;;;;;;6.03;5.55;;;5.00;94.30;;;;;;5074105;28;20127;-57
2020/12/28 02:25:40;;;;;;;5.70;5.28;;;5.00;94.40;;;;;;5076025;28;20611;-57
2020/12/28 02:28:05;;;;;;;5.88;5.47;;;5.00;94.40;;;;;;5075428;28;20063;-58
2020/12/28 02:30:31;;;;;;;6.40;5.60;;;5.00;94.50;;;;;;5077799;28;20517;-57
2020/12/28 02:32:57;;;;;;;5.60;5.10;;;5.00;94.50;;;;;;5075132;28;20187;-57
2020/12/28 02:35:22;;;;;;;5.60;5.07;;;5.00;94.50;;;;;;5074248;28;20044;-57
2020/12/28 02:37:48;;;;;;;5.30;4.90;;;5.00;94.50;;;;;;5077140;28;20145;-57
2020/12/28 02:40:13;;;;;;;6.00;5.50;;;5.00;94.50;;;;;;5074124;28;20436;-57
2020/12/28 02:42:39;;;;;;;5.80;5.30;;;5.00;94.50;;;;;;5076423;28;20032;-57
2020/12/28 02:45:05;;;;;;;5.78;5.28;;;5.00;94.50;;;;;;5072685;28;20039;-57
2020/12/28 02:47:32;;;;;;;6.18;5.57;;;5.00;94.50;;;;;;5074893;28;20041;-57
2020/12/28 02:49:57;;;;;;;6.20;5.38;;;5.00;94.50;;;;;;5078322;28;20055;-57
2020/12/28 02:52:23;;;;;;;5.63;5.22;;;5.00;94.50;;;;;;5074968;28;20483;-57
2020/12/28 02:54:48;;;;;;;5.80;5.30;;;5.00;94.50;;;;;;5073963;28;20032;-57
2020/12/28 02:57:14;;;;;;;6.10;5.28;;;5.00;94.50;;;;;;5075044;28;20040;-57
2020/12/28 02:59:40;;;;;;;6.00;5.60;;;5.00;94.50;;;;;;5076257;28;20051;-57
2020/12/28 03:02:05;;;;;;;6.28;5.80;;;5.00;94.50;;;;;;5075898;28;20037;-57
2020/12/28 03:04:31;;;;;;;6.50;5.90;;;5.00;94.50;;;;;;5074286;28;20041;-57
2020/12/28 03:06:57;;;;;;;6.75;6.18;;;5.00;94.50;;;;;;5072491;28;20032;-57
2020/12/28 03:09:22;;;;;;;6.55;6.03;;;5.10;94.60;;;;;;5079031;28;20043;-57
2020/12/28 03:11:48;;;;;;;6.18;5.57;;;5.00;94.60;;;;;;5076606;28;20036;-57
2020/12/28 03:14:13;;;;;;;5.75;5.35;;;5.00;94.60;;;;;;5077328;28;20044;-57
2020/12/28 03:16:39;;;;;;;6.25;5.75;;;5.00;94.60;;;;;;5083255;28;20048;-57
2020/12/28 03:19:05;;;;;;;6.47;5.97;;;5.10;94.60;;;;;;5081620;28;20124;-57
2020/12/28 03:21:30;;;;;;;6.82;6.18;;;5.10;94.60;;;;;;5080590;28;20135;-57
2020/12/28 03:23:56;;;;;;;6.03;5.53;;;5.00;94.60;;;;;;5077071;28;20054;-57
2020/12/28 03:26:22;;;;;;;6.07;5.68;;;5.00;94.60;;;;;;5076596;28;20082;-57
2020/12/28 03:28:47;;;;;;;6.95;6.35;;;5.10;94.60;;;;;;5077939;28;20032;-57
2020/12/28 03:31:13;;;;;;;7.53;6.07;;;5.10;94.60;;;;;;5079997;28;20455;-57
2020/12/28 03:33:38;;;;;;;6.93;6.13;;;5.00;94.60;;;;;;5078823;28;20541;-57
2020/12/28 03:36:04;;;;;;;6.68;6.13;;;5.00;94.60;;;;;;5083746;28;20055;-57
2020/12/28 03:38:30;;;;;;;6.00;5.50;;;5.10;94.50;;;;;;5082891;28;20127;-57
2020/12/28 03:40:55;;;;;;;6.10;5.53;;;5.00;94.40;;;;;;5084031;28;20040;-57
2020/12/28 03:43:21;;;;;;;6.25;5.75;;;5.00;94.40;;;;;;5081429;28;20556;-57
2020/12/28 03:45:46;;;;;;;6.25;5.72;;;5.00;94.30;;;;;;5081181;28;20394;-57
2020/12/28 03:48:13;;;;;;;6.25;5.70;;;5.00;94.30;;;;;;5079603;28;20048;-57
2020/12/28 03:50:38;;;;;;;6.18;5.63;;;5.00;94.30;;;;;;5081854;28;20043;-57
2020/12/28 03:53:04;;;;;;;6.05;5.45;;;5.00;94.20;;;;;;5081246;28;20032;-57
2020/12/28 03:55:29;;;;;;;6.20;5.70;;;5.00;94.20;;;;;;5104951;28;20041;-57
2020/12/28 03:57:55;;;;;;;6.65;5.97;;;5.00;94.20;;;;;;5085828;28;20036;-57
2020/12/28 04:00:21;;;;;;;6.65;6.10;;;5.00;94.10;;;;;;5082410;28;20029;-57
2020/12/28 04:02:47;;;;;;;6.55;6.03;;;5.00;94.10;;;;;;5080568;28;20457;-57
2020/12/28 04:05:12;;;;;;;5.43;4.93;;;5.00;94.10;;;;;;5081172;28;20036;-57
2020/12/28 04:07:38;;;;;;;6.13;5.68;;;5.00;94.00;;;;;;5086772;28;20040;-57
2020/12/28 04:10:04;;;;;;;6.07;5.60;;;5.00;93.90;;;;;;5079683;28;20045;-57
2020/12/28 04:12:29;;;;;;;5.88;5.38;;;4.90;93.90;;;;;;5078488;28;20151;-57
2020/12/28 04:14:55;;;;;;;6.07;5.57;;;4.90;94.00;;;;;;5078396;28;20538;-57
2020/12/28 04:17:21;;;;;;;6.75;6.15;;;5.00;94.10;;;;;;5078218;28;20036;-57
2020/12/28 04:19:46;;;;;;;6.25;5.45;;;5.00;94.00;;;;;;5080986;28;20033;-57
2020/12/28 04:22:12;;;;;;;6.95;5.75;;;5.00;94.00;;;;;;5080123;28;20055;-57
2020/12/28 04:24:37;;;;;;;6.13;5.63;;;5.00;93.90;;;;;;5079862;28;20123;-57
2020/12/28 04:27:03;;;;;;;8.00;6.53;;;5.00;93.90;;;;;;5077535;28;20378;-57
2020/12/28 04:29:29;;;;;;;6.55;5.93;;;5.00;93.90;;;;;;5082847;28;20489;-57
2020/12/28 04:31:54;;;;;;;7.22;6.53;;;5.00;93.90;;;;;;5080931;28;20372;-57
2020/12/28 04:34:20;;;;;;;9.82;6.95;;;5.00;94.00;;;;;;5078266;28;20044;-57
2020/12/28 04:36:46;;;;;;;6.95;6.35;;;5.00;93.90;;;;;;5081103;28;20044;-57
2020/12/28 04:39:11;;;;;;;7.43;6.75;;;5.00;93.90;;;;;;5079503;28;20040;-57
2020/12/28 04:41:37;;;;;;;7.38;6.78;;;5.00;94.00;;;;;;5078631;28;20040;-57
2020/12/28 04:44:03;;;;;;;8.50;7.70;;;5.00;94.00;;;;;;5078258;28;20032;-57
2020/12/28 04:46:30;;;;;;;7.10;6.53;;;5.00;94.10;;;;;;5081153;28;20074;-57
2020/12/28 04:48:57;;;;;;;7.72;7.13;;;5.00;94.00;;;;;;5075542;28;20053;-57
2020/12/28 04:51:23;;;;;;;7.63;7.05;;;5.00;94.00;;;;;;5079450;28;20222;-57
2020/12/28 04:53:52;;;;;;;7.88;7.18;;;5.00;94.10;;;;;;5074077;28;20093;-57
2020/12/28 04:56:21;;;;;;;7.85;7.15;;;5.00;94.10;;;;;;5077909;28;20040;-57
2020/12/28 04:58:48;;;;;;;8.05;7.45;;;4.90;94.00;;;;;;5079321;28;20040;-57
2020/12/28 05:01:14;;;;;;;7.60;6.90;;;5.00;94.10;;;;;;5075273;28;20040;-57
2020/12/28 05:03:39;;;;;;;8.55;7.85;;;5.00;94.00;;;;;;5078111;28;20045;-57
2020/12/28 05:06:06;;;;;;;7.70;7.10;;;5.00;94.00;;;;;;5081832;28;20091;-57
2020/12/28 05:08:32;;;;;;;9.15;7.53;;;4.90;94.00;;;;;;5073768;28;20041;-57
2020/12/28 05:11:12;;;;;;;7.55;6.95;;;5.00;94.00;;;;;;5073577;28;20037;-57
2020/12/28 05:13:38;;;;;;;7.93;7.32;;;4.90;94.00;;;;;;5076257;28;20398;-57
2020/12/28 05:16:04;;;;;;;7.55;6.75;;;5.00;94.00;;;;;;5083337;28;20035;-57
2020/12/28 05:18:31;;;;;;;8.77;7.97;;;5.00;94.00;;;;;;5073337;28;20402;-57
2020/12/28 05:20:57;;;;;;;8.50;7.70;;;4.90;94.00;;;;;;5077730;28;20040;-57
2020/12/28 05:23:23;;;;;;;7.90;7.10;;;4.90;93.90;;;;;;5076270;28;20506;-57
2020/12/28 05:25:50;;;;;;;8.75;7.53;;;5.00;94.00;;;;;;5077392;28;20066;-57
2020/12/28 05:28:27;;;;;;;8.50;7.70;;;4.90;94.00;;;;;;5078052;28;20067;-57
2020/12/28 05:30:52;;;;;;;8.05;7.35;;;4.90;94.00;;;;;;5074217;28;20070;-57
2020/12/28 05:33:18;;;;;;;10.52;7.88;;;4.90;94.00;;;;;;5075005;28;20547;-57
2020/12/28 05:35:45;;;;;;;9.20;8.40;;;4.90;94.00;;;;;;5079049;28;20025;-58
2020/12/28 05:38:12;;;;;;;8.60;7.80;;;4.90;93.90;;;;;;5074270;28;20040;-57
2020/12/28 05:40:38;;;;;;;8.73;7.93;;;4.90;93.90;;;;;;5078108;28;20091;-57
2020/12/28 05:43:05;;;;;;;8.50;7.80;;;4.90;93.90;;;;;;5076231;28;20485;-57
2020/12/28 05:45:34;;;;;;;9.10;7.60;;;4.90;93.90;;;;;;5078539;28;20071;-57
2020/12/28 05:48:01;;;;;;;8.75;7.85;;;4.90;93.90;;;;;;5075762;28;20040;-57
2020/12/28 05:50:31;;;;;;;8.82;7.97;;;4.90;93.80;;;;;;5077473;28;20111;-57
2020/12/28 05:53:02;;;;;;;8.55;7.68;;;4.90;93.80;;;;;;5073125;28;20548;-57
2020/12/28 05:55:31;;;;;;;10.20;8.25;;;4.90;94.10;;;;;;5075907;28;20044;-57
2020/12/28 05:57:58;;;;;;;10.82;8.85;;;4.90;93.80;;;;;;5081690;28;20063;-57
2020/12/28 06:00:25;;;;;;;9.52;8.65;;;4.90;93.80;;;;;;5073524;28;20107;-57
2020/12/28 06:02:51;;;;;;;9.40;8.43;;;4.90;93.80;;;;;;5078386;28;20114;-57
2020/12/28 06:05:20;;;;;;;9.60;8.70;;;4.90;93.80;;;;;;5078721;28;20046;-57
2020/12/28 06:07:47;;;;;;;9.73;8.82;;;4.90;93.90;;;;;;5074243;28;20087;-57
2020/12/28 06:10:14;;;;;;;9.38;8.43;;;4.90;93.80;;;;;;5076339;28;20048;-57
2020/12/28 06:12:42;;;;;;;9.18;8.27;;;4.90;93.90;;;;;;5074149;28;20135;-57
2020/12/28 06:15:20;;;;;;;9.27;8.40;;;4.90;93.90;;;;;;5074578;28;20044;-57
2020/12/28 06:17:47;;;;;;;8.93;8.20;;;4.90;93.90;;;;;;5075370;28;20036;-57
2020/12/28 06:20:13;;;;;;;9.32;8.50;;;4.90;93.80;;;;;;5074564;28;20058;-57
2020/12/28 06:22:41;;;;;;;9.73;8.82;;;4.90;93.80;;;;;;5076636;28;20037;-57
2020/12/28 06:25:16;;;;;;;9.88;8.88;;;4.80;93.70;;;;;;5073932;28;20040;-57
2020/12/28 06:27:44;;;;;;;9.27;8.45;;;4.90;93.80;;;;;;5074553;28;20497;-57
2020/12/28 06:30:20;;;;;;;9.82;8.93;;;4.80;93.70;;;;;;5077422;28;20036;-57
2020/12/28 06:33:04;;;;;;;9.68;8.65;;;4.80;93.70;;;;;;5078220;28;20041;-57
2020/12/28 06:35:31;;;;;;;9.98;9.07;;;4.80;93.80;;;;;;5081256;28;20506;-57
2020/12/28 06:38:00;;;;;;;10.18;9.30;;;4.80;93.80;;;;;;5080494;28;20490;-57
2020/12/28 06:40:31;;;;;;;10.15;9.25;;;4.80;93.80;;;;;;5078894;28;20036;-57
2020/12/28 06:43:16;;;;;;;9.95;9.05;;;4.80;93.80;;;;;;5079693;28;20044;-57
2020/12/28 06:45:44;;;;;;;10.00;9.10;;;4.80;93.80;;;;;;5082835;28;20505;-57
2020/12/28 06:48:21;;;;;;;9.80;8.77;;;4.80;93.80;;;;;;5075328;28;20089;-57
2020/12/28 06:50:52;;;;;;;9.90;9.00;;;4.80;93.80;;;;;;5077651;28;20056;-57
2020/12/28 06:53:26;;;;;;;10.25;8.95;;;4.80;93.80;;;;;;5081456;28;20079;-57
2020/12/28 06:55:52;;;;;;;10.00;8.73;;;4.80;93.90;;;;;;5085906;28;20040;-57
2020/12/28 06:58:18;;;;;;;8.75;7.95;;;4.80;93.80;;;;;;5078938;28;20040;-57
2020/12/28 07:00:44;;;;;;;9.60;8.55;;;4.70;93.80;;;;;;5078603;28;20440;-57
2020/12/28 07:03:17;;;;;;;9.85;8.65;;;4.70;94.00;;;;;;5078215;28;20434;-57
2020/12/28 07:05:43;;;;;;;9.93;8.95;;;4.70;94.10;;;;;;5081989;28;20048;-57
2020/12/28 07:08:09;;;;;;;9.40;8.52;;;4.70;94.10;;;;;;5079026;28;20044;-57
2020/12/28 07:10:36;;;;;;;10.43;9.45;;;4.80;94.10;;;;;;5082599;28;20482;-57
2020/12/28 07:13:05;;;;;;;10.15;9.25;;;4.80;94.00;;;;;;5083992;28;20047;-57
2020/12/28 07:15:31;;;;;;;10.35;9.38;;;4.80;93.90;;;;;;5087510;28;20043;-57
2020/12/28 07:18:08;;;;;;;9.38;8.48;;;4.70;93.80;;;;;;5089733;28;20028;-57
2020/12/28 07:20:34;;;;;;;9.98;8.98;;;4.70;93.70;;;;;;5073213;28;20516;-57
2020/12/28 07:22:59;;;;;;;8.85;8.05;;;4.70;93.70;;;;;;5087612;28;20036;-57
2020/12/28 07:25:25;;;;;;;9.57;8.70;;;4.60;93.60;;;;;;5088327;28;20075;-57
2020/12/28 07:27:54;;;;;;;9.52;7.18;;;4.50;93.60;;;;;;5088733;28;20113;-57
2020/12/28 07:30:19;;;;;;;6.47;5.95;;;4.50;93.30;;;;;;5092349;28;20044;-57
2020/12/28 07:32:45;;;;;;;6.70;6.10;;;4.40;93.20;;;;;;5089674;28;20039;-57
2020/12/28 07:35:11;;;;;;;6.78;6.18;;;4.30;92.80;;;;;;5091840;28;20036;-57
2020/12/28 07:37:41;;;;;;;8.40;7.25;;;4.10;92.80;;;;;;5089198;28;20032;-57
2020/12/28 07:40:07;;;;;;;7.35;6.75;;;4.10;92.90;;;;;;5092041;28;20040;-57
2020/12/28 07:42:33;;;;;;;7.68;6.75;;;4.00;93.00;;;;;;5091775;28;20047;-57
2020/12/28 07:45:01;;;;;;;9.02;8.23;;;3.90;93.00;;;;;;5092793;28;20043;-57
2020/12/28 07:47:58;;;;;;;8.63;7.90;;;3.80;93.20;;;;;;5089505;28;20123;-57
2020/12/28 07:50:24;;;;;;;;;;;3.70;93.00;;;;;;5085734;28;20039;-57
2020/12/28 07:52:52;;;;;;;;;;;3.60;93.40;;;;;;5084067;28;20235;-57
2020/12/28 07:55:23;;;;;;;11.85;10.68;;;3.70;94.10;;;;;;5082140;28;19916;-57
2020/12/28 07:58:07;;;;;;;11.93;10.93;;;3.80;94.50;;;;;;5080656;28;20089;-57
2020/12/28 08:00:43;;;;;;;10.52;9.50;;;3.70;94.30;;;;;;5082233;28;20048;-57
2020/12/28 08:03:27;;;;;;;11.23;9.75;;;3.80;94.20;;;;;;5084157;28;20094;-57
2020/12/28 08:05:54;;;;;;;11.23;10.23;;;3.80;94.20;;;;;;5085391;28;20040;-57
2020/12/28 08:08:24;;;;;;;10.60;9.63;;;3.80;94.10;;;;;;5081052;28;20032;-57
2020/12/28 08:10:55;;;;;;;10.48;9.52;;;3.80;94.10;;;;;;5079796;28;20442;-56
2020/12/28 08:13:25;;;;;;;8.18;7.38;;;3.70;94.00;;;;;;5081767;28;20042;-57
2020/12/28 08:15:51;;;;;;;7.95;7.18;;;3.70;93.80;;;;;;5081669;28;20067;-56
2020/12/28 08:18:17;;;;;;;8.02;7.30;;;3.70;93.30;;;;;;5080279;28;21365;-57
2020/12/28 08:20:42;;;;;;;10.85;9.70;;;3.60;93.10;;;;;;5080136;28;20036;-57
2020/12/28 08:23:08;;;;;;;13.40;9.93;;;3.50;93.30;;;;;;5080393;28;20289;-57
2020/12/28 08:25:36;;;;;;;10.32;9.35;;;3.60;94.10;;;;;;5078744;28;20567;-57
2020/12/28 08:28:03;;;;;;;10.70;8.93;;;3.60;94.30;;;;;;5079184;28;20086;-56
2020/12/28 08:30:30;;;;;;;9.48;8.38;;;3.60;94.40;;;;;;5082101;28;20048;-57
2020/12/28 08:32:57;;;;;;;9.88;8.98;;;3.70;94.30;;;;;;5081163;28;20032;-57
2020/12/28 08:35:23;;;;;;;9.27;8.38;;;3.70;94.30;;;;;;5082447;28;20044;-57
2020/12/28 08:37:50;;;;;;;8.48;7.70;;;3.80;94.40;;;;;;5085288;28;20043;-57
2020/12/28 08:40:21;;;;;;;9.82;8.35;;;3.80;94.40;;;;;;5082595;28;20032;-57
2020/12/28 08:42:55;;;;;;;8.60;7.80;;;3.90;94.40;;;;;;5079876;28;20510;-57
2020/12/28 08:45:26;;;;;;;8.52;7.72;;;3.90;94.40;;;;;;5078144;28;20068;-57
2020/12/28 08:47:56;;;;;;;7.63;6.82;;;4.00;94.40;;;;;;5081588;28;20615;-47
2020/12/28 08:50:23;;;;;;;7.85;7.05;;;4.00;94.20;;;;;;5082779;28;20043;-50
2020/12/28 08:52:50;;;;;;;7.63;6.80;;;4.10;94.00;;;;;;5079042;28;20095;-49
2020/12/28 08:55:18;;;;;;;8.05;7.30;;;4.10;93.90;;;;;;5079071;28;20097;-51
2020/12/28 08:57:50;;;;;;;8.18;6.88;;;4.10;93.90;;;;;;5081581;28;20047;-46
2020/12/28 09:00:16;;;;;;;8.82;7.10;;;4.00;93.80;;;;;;5080385;28;20041;-52
2020/12/28 09:02:50;;;;;;;7.72;6.75;;;4.00;93.90;;;;;;5080679;28;20036;-49
2020/12/28 09:05:16;;;;;;;7.35;6.63;;;4.00;93.80;;;;;;5080032;28;20043;-46
2020/12/28 09:07:41;;;;;;;7.63;7.03;;;4.00;93.90;;;;;;5080767;28;20044;-46
2020/12/28 09:10:07;;;;;;;8.38;6.80;;;4.00;93.90;;;;;;5085189;28;20043;-51
2020/12/28 09:12:32;;;;;;;9.18;7.40;;;4.00;94.10;;;;;;5079820;28;20093;-51
2020/12/28 09:14:58;;;;;;;13.98;6.90;;;4.00;93.80;;;;;;5080331;28;20066;-51
2020/12/28 09:17:24;;;;;;;12.48;7.10;;;3.90;93.80;;;;;;5080728;28;20111;-46
2020/12/28 09:19:49;;;;;;;7.57;6.80;;;3.90;93.70;;;;;;5082838;28;20036;-47
2020/12/28 09:22:15;;;;;;;8.18;6.57;;;3.90;93.70;;;;;;5079584;28;20567;-46
2020/12/28 09:24:40;;;;;;;7.50;6.43;;;4.00;93.80;;;;;;5076977;28;20036;-47
2020/12/28 09:27:06;;;;;;;7.72;7.03;;;4.10;93.90;;;;;;5083750;28;20043;-49
2020/12/28 09:29:32;;;;;;;8.30;7.20;;;3.90;93.80;;;;;;5083901;28;20301;-47
2020/12/28 09:31:57;;;;;;;7.60;6.82;;;4.00;93.90;;;;;;5080717;28;20161;-50
2020/12/28 09:34:23;;;;;;;7.75;7.00;;;4.10;93.90;;;;;;5078137;28;20584;-48
2020/12/28 09:37:03;;;;;;;7.68;7.07;;;4.10;94.00;;;;;;5081715;28;20040;-48
2020/12/28 09:39:29;;;;;;;7.43;6.88;;;4.10;94.00;;;;;;5080174;28;20131;-50
2020/12/28 09:41:55;;;;;;;7.63;6.72;;;4.20;94.10;;;;;;5078896;28;20170;-47
2020/12/28 09:44:21;;;;;;;7.47;6.43;;;4.20;94.00;;;;;;5079061;28;20033;-46
2020/12/28 09:46:47;;;;;;;7.60;6.50;;;4.20;93.70;;;;;;5079823;28;20368;-48
2020/12/28 09:49:12;;;;;;;9.82;6.05;;;4.30;93.90;;;;;;5081077;28;20048;-48
2020/12/28 09:51:38;;;;;;;6.72;5.80;;;4.40;93.70;;;;;;5077283;28;20102;-46
2020/12/28 09:54:04;;;;;;;6.38;5.78;;;4.30;93.60;;;;;;5080256;28;20642;-48
2020/12/28 09:56:30;;;;;;;5.53;5.03;;;4.40;93.70;;;;;;5081472;28;20400;-51
2020/12/28 09:58:56;;;;;;;5.85;4.90;;;4.50;93.60;;;;;;5082501;28;20054;-48
2020/12/28 10:01:24;;;;;;;8.18;6.05;;;4.50;93.10;;;;;;5082044;28;20502;-46
2020/12/28 10:03:49;;;;;;;6.75;6.15;;;4.50;93.30;;;;;;5080184;28;20043;-46
2020/12/28 10:06:31;;;;;;;6.40;5.82;;;4.50;93.30;;;;;;5083040;28;20116;-46
2020/12/28 10:09:00;;;;;;;6.32;5.72;;;4.50;93.10;;;;;;5079605;28;20032;-47
2020/12/28 10:11:25;;;;;;;7.38;6.13;;;4.50;93.30;;;;;;5076092;28;20436;-47
2020/12/28 10:13:51;;;;;;;6.70;5.97;;;4.50;93.30;;;;;;5081297;28;20109;-48
2020/12/28 10:16:24;;;;;;;7.43;6.10;;;4.50;93.00;;;;;;5083127;28;20433;-46
2020/12/28 10:18:50;;;;;;;6.85;5.97;;;4.60;93.30;;;;;;5080916;28;20040;-50
2020/12/28 10:21:16;;;;;;;6.05;5.40;;;4.70;93.30;;;;;;5082323;28;20413;-47
2020/12/28 10:23:42;;;;;;;6.97;5.47;;;4.70;93.30;;;;;;5078849;28;20032;-51
2020/12/28 10:26:21;;;;;;;4.57;4.18;;;4.90;93.40;;;;;;5081026;28;20043;-48
2020/12/28 10:28:48;;;;;;;4.95;4.47;;;5.00;93.00;;;;;;5081992;28;20208;-50
2020/12/28 10:31:15;;;;;;;5.70;3.80;;;5.30;92.80;;;;;;5080698;28;20052;-47
2020/12/28 10:33:42;;;;;;;4.78;4.25;;;5.40;92.40;;;;;;5080792;28;20039;-49
2020/12/28 10:36:17;;;;;;;8.52;3.85;;;5.60;92.40;;;;;;5080984;28;20134;-46
2020/12/28 10:38:47;;;;;;;7.68;4.40;;;5.60;91.60;;;;;;5081261;28;20044;-50
2020/12/28 10:41:13;;;;;;;5.65;3.72;;;5.70;91.50;;;;;;5080835;28;20044;-51
2020/12/28 10:43:39;;;;;;;5.03;3.25;;;5.90;91.20;;;;;;5081475;28;20061;-47
2020/12/28 10:46:08;;;;;;;5.10;4.13;;;5.90;90.30;;;;;;5082350;28;20085;-46
2020/12/28 10:48:35;;;;;;;5.65;4.05;;;5.90;90.50;;;;;;5081573;28;20537;-51
2020/12/28 10:51:02;;;;;;;7.22;4.10;;;5.90;90.60;;;;;;5079283;28;20046;-51
2020/12/28 10:53:27;;;;;;;7.07;4.70;;;5.70;90.50;;;;;;5076736;28;20055;-49
2020/12/28 10:55:53;;;;;;;6.07;4.80;;;5.70;90.10;;;;;;5082823;28;20035;-48
2020/12/28 10:58:19;;;;;;;6.95;5.35;;;5.60;90.70;;;;;;5081679;28;20032;-47
2020/12/28 11:00:45;;;;;;;5.50;4.93;;;5.60;91.10;;;;;;5081947;28;20113;-49
2020/12/28 11:03:10;;;;;;;7.13;4.40;;;5.70;91.40;;;;;;5083456;28;20051;-49
2020/12/28 11:05:36;;;;;;;7.60;4.43;;;5.80;91.50;;;;;;5078140;28;20491;-51
2020/12/28 11:08:02;;;;;;;5.03;4.07;;;5.90;91.20;;;;;;5074043;28;20040;-50
2020/12/28 11:10:27;;;;;;;7.18;3.60;;;6.00;91.30;;;;;;5071640;28;20044;-49
2020/12/28 11:12:53;;;;;;;6.38;3.28;;;6.10;89.70;;;;;;5075677;28;20036;-49
2020/12/28 11:15:19;;;;;;;5.00;3.28;;;6.30;89.00;;;;;;5077708;28;20028;-50
2020/12/28 11:17:44;;;;;;;4.85;3.45;;;6.40;90.00;;;;;;5075879;28;20036;-49
2020/12/28 11:20:10;;;;;;;5.47;3.35;;;6.60;89.70;;;;;;5075875;28;20040;-47
2020/12/28 11:22:38;;;;;;;5.82;3.47;;;6.80;87.10;;;;;;5073501;28;20037;-51
2020/12/28 11:25:04;;;;;;;6.00;3.65;;;6.90;88.90;;;;;;5076350;28;20036;-50
2020/12/28 11:27:31;;;;;;;6.78;3.20;;;7.00;88.70;;;;;;5078049;28;20541;-50
2020/12/28 11:29:58;;;;;;;7.53;3.55;;;7.20;87.40;;;;;;5075838;28;20046;-47
2020/12/28 11:32:24;;;;;;;5.85;3.60;;;7.30;85.80;;;;;;5079040;28;20445;-51
2020/12/28 11:34:50;;;;;;;5.93;3.17;;;7.40;84.80;;;;;;5078121;28;20091;-48
2020/12/28 11:37:16;;;;;;;4.97;3.45;;;7.50;83.80;;;;;;5081593;28;20044;-51
2020/12/28 11:39:42;;;;;;;7.18;5.10;;;7.50;85.10;;;;;;5079522;28;20040;-52
2020/12/28 11:42:08;;;;;;;7.63;4.28;;;7.30;84.60;;;;;;5083907;28;20555;-48
2020/12/28 11:44:34;;;;;;;8.13;4.05;;;7.20;84.50;;;;;;5082799;28;20040;-48
2020/12/28 11:46:59;;;;;;;7.55;4.05;;;7.10;85.50;;;;;;5084289;28;20415;-51
2020/12/28 11:49:25;;;;;;;5.88;4.22;;;7.20;85.90;;;;;;5085794;28;20081;-47
2020/12/28 11:51:52;;;;;;;8.10;4.07;;;7.40;83.60;;;;;;5084427;28;20559;-48
2020/12/28 11:54:18;;;;;;;9.20;4.13;;;7.50;83.90;;;;;;5081420;28;20032;-52
2020/12/28 11:56:44;;;;;;;5.65;3.88;;;7.60;83.80;;;;;;5085062;28;20059;-52
2020/12/28 11:59:10;;;;;;;6.35;4.07;;;7.70;82.60;;;;;;5082563;28;20100;-50
2020/12/28 12:01:36;;;;;;;8.15;3.80;;;7.60;82.80;;;;;;5086982;28;20973;-47
2020/12/28 12:04:02;;;;;;;6.05;3.55;;;7.50;83.50;;;;;;5081311;28;20031;-47
2020/12/28 12:06:27;;;;;;;9.02;4.25;;;7.40;83.20;;;;;;5085282;28;20031;-48
2020/12/28 12:11:42;;;;;;;5.32;3.28;;;7.40;82.80;;;;;;5078426;28;20043;-49
2020/12/28 12:14:08;;;;;;;7.05;4.07;;;7.40;83.10;;;;;;5082379;28;20386;-51
2020/12/28 12:16:33;;;;;;;10.63;4.15;;;7.30;83.40;;;;;;5086024;28;20047;-51
2020/12/28 12:18:59;;;;;;;8.07;4.15;;;7.20;83.40;;;;;;5083506;28;20028;-47
2020/12/28 12:21:24;;;;;;;8.82;4.10;;;7.00;84.70;;;;;;5087009;28;20508;-47
2020/12/28 12:23:50;;;;;;;6.95;3.53;;;7.00;84.70;;;;;;5081716;28;20495;-47
2020/12/28 12:26:21;;;;;;;7.97;3.88;;;6.90;85.00;;;;;;5084280;28;20038;-48
2020/12/28 12:28:47;;;;;;;14.30;4.10;;;6.90;86.30;;;;;;5083320;28;20040;-52
2020/12/28 12:31:17;;;;;;;7.40;3.90;;;6.70;86.30;;;;;;5081575;28;20923;-51
2020/12/28 12:33:43;;;;;;;7.45;4.05;;;6.70;86.90;;;;;;5081092;28;20046;-51
2020/12/28 12:36:11;;;;;;;6.40;3.35;;;6.60;86.00;;;;;;5083280;28;20039;-50
2020/12/28 12:38:36;;;;;;;6.95;4.38;;;6.60;86.10;;;;;;5082606;28;20040;-52
2020/12/28 12:41:03;;;;;;;5.63;3.30;;;6.50;86.10;;;;;;5083665;28;20402;-48
2020/12/28 12:43:28;;;;;;;6.50;3.50;;;6.50;86.10;;;;;;5082830;28;20049;-49
2020/12/28 12:45:54;;;;;;;6.80;3.40;;;6.40;87.20;;;;;;5082746;28;20043;-50
2020/12/28 12:48:20;;;;;;;5.07;3.25;;;6.40;87.40;;;;;;5080213;28;20044;-47
2020/12/28 12:50:47;;;;;;;5.50;3.50;;;6.20;87.00;;;;;;5082207;28;20044;-49
2020/12/28 12:53:12;;;;;;;5.72;3.10;;;6.20;87.20;;;;;;5085349;28;20074;-48
2020/12/28 12:55:41;;;;;;;8.32;3.30;;;6.10;87.10;;;;;;5081406;28;20458;-48
2020/12/28 12:58:07;;;;;;;5.70;3.25;;;6.10;87.60;;;;;;5082790;28;20104;-51
2020/12/28 13:00:34;;;;;;;6.70;3.63;;;6.10;87.90;;;;;;5080802;28;20055;-52